VMMCZGSZ

Guest
Details From VMMC - Macau Intl
To ZGSZ - BAOAN INTL
Flight Number -
Tags decoded
Created
Modified
Stats Distance 32 nm / 59 km
Max Altitude 0 ft / 0 m
Waypoints 2
Social Downloads 3
Likes 0
Share VATSIM

Download

Looking for another format? Having issues loading an existing format? Contact us
Advertisement - Login to hide

Notes

Requested: VMMC GUAWA ZGSZ Unmatched points: GUAWA

Route

VMMC ZGSZ

ID Type Via Altitude Latitude Longitude Leg Dist Tot Dist Heading (true) Name
O VMMC APT - 0 ft / 0 m 22.14868˚ 113.59141˚ - 0 nm - Macau Intl
O ZGSZ APT - 0 ft / 0 m 22.63926˚ 113.81066˚ 31 nm 31 nm 22° / 22° BAOAN INTL

Altitude Profile

Advertisement - Login to hide

VMMC

Details ICAO VMMC (MFM)
Name Macau Intl
Region Macau
Timezone Unknown (UTC+0.0)
Stats Elevation 20 ft / 6 m (AMSL)
Location 22.148675° 113.591412°
Runways 1
Magnetic Variation 2.745° W

METAR

VMMC 180900Z 35015KT 9000 NSC 15/01 Q1023 NOSIG

Decode

TAF

TAF VMMC 180502Z 1806/1912 36018KT 8000 NSC

Decode

Departure Runways

ID Width Length Bearing (true) Bearing (mag) Surface Threshold Offset Overrun Length
16 148 ft / 45 m 10,584 ft / 3,226 m 160.29° 163.03° Concrete 1,195 ft / 364 m 155 ft / 47 m
34 148 ft / 45 m 10,584 ft / 3,226 m 340.29° 343.03° Concrete 1,215 ft / 370 m 185 ft / 56 m

ZGSZ

Details ICAO ZGSZ (SZX)
Name BAOAN INTL
Region China
Timezone Asia/Shanghai (UTC+8.0)
Stats Elevation 13 ft / 4 m (AMSL)
Location 22.639259° 113.810663°
Runways 1
Magnetic Variation 2.862° W

METAR

ZGSZ 180900Z 36005MPS CAVOK 16/M01 Q1024 NOSIG

Decode

TAF

Not found

Destination Runways

ID Width Length Bearing (true) Bearing (mag) Surface Threshold Offset Overrun Length
15 148 ft / 45 m 11,209 ft / 3,416 m 153.15° 156.01° Concrete 0 ft / 0 m 197 ft / 60 m
33 148 ft / 45 m 11,209 ft / 3,416 m 333.15° 336.01° Concrete 0 ft / 0 m 197 ft / 60 m

Approach Navaids

Runway Type Ident Frequency Range Bearing (true) Bearing (mag) Slope Elevation
15 Localiser IQJ 111.30 MHz 18 nm / 33 km 153.14° 156.00° - 13 ft / 4 m (AMSL)
15 Glidescope IQJ 111.30 MHz 10 nm / 19 km 153.15° 156.01° 3.00° 13 ft / 4 m (AMSL)
15 DME IQJ 111.30 MHz 18 nm / 33 km - - - 33 ft / 10 m (AMSL)
33 Localiser IMH 110.70 MHz 18 nm / 33 km 333.13° 335.99° - 13 ft / 4 m (AMSL)
33 Glidescope IMH 110.70 MHz 10 nm / 19 km 333.15° 336.01° 3.00° 13 ft / 4 m (AMSL)
33 DME IMH 110.70 MHz 18 nm / 33 km - - - 26 ft / 8 m (AMSL)

Popular Alternatives